sensor_id;sensor_type;location;lat;lon;timestamp;P1;durP1;ratioP1;P2;durP2;ratioP2
21675;SDS011;10999;51.332;9.458;2023-11-18T00:02:00;9.48;;;4.32;;
21675;SDS011;10999;51.332;9.458;2023-11-18T00:04:27;9.27;;;4.00;;
21675;SDS011;10999;51.332;9.458;2023-11-18T00:06:54;12.20;;;3.90;;
21675;SDS011;10999;51.332;9.458;2023-11-18T00:09:20;9.55;;;3.80;;
21675;SDS011;10999;51.332;9.458;2023-11-18T00:11:50;8.88;;;3.33;;
21675;SDS011;10999;51.332;9.458;2023-11-18T00:14:17;6.85;;;3.33;;
21675;SDS011;10999;51.332;9.458;2023-11-18T00:16:44;7.80;;;3.65;;
21675;SDS011;10999;51.332;9.458;2023-11-18T00:19:11;9.40;;;4.03;;
21675;SDS011;10999;51.332;9.458;2023-11-18T00:21:38;9.32;;;3.33;;
21675;SDS011;10999;51.332;9.458;2023-11-18T00:24:04;8.73;;;3.05;;
21675;SDS011;10999;51.332;9.458;2023-11-18T00:26:31;7.80;;;3.50;;
21675;SDS011;10999;51.332;9.458;2023-11-18T00:28:58;8.60;;;3.35;;
21675;SDS011;10999;51.332;9.458;2023-11-18T00:31:26;7.95;;;2.83;;
21675;SDS011;10999;51.332;9.458;2023-11-18T00:33:54;8.90;;;3.50;;
21675;SDS011;10999;51.332;9.458;2023-11-18T00:36:20;9.45;;;3.40;;
21675;SDS011;10999;51.332;9.458;2023-11-18T00:38:47;6.60;;;2.80;;
21675;SDS011;10999;51.332;9.458;2023-11-18T00:41:15;9.23;;;3.45;;
21675;SDS011;10999;51.332;9.458;2023-11-18T00:43:43;7.55;;;3.10;;
21675;SDS011;10999;51.332;9.458;2023-11-18T00:46:10;8.23;;;3.17;;
21675;SDS011;10999;51.332;9.458;2023-11-18T00:48:37;7.82;;;2.90;;
21675;SDS011;10999;51.332;9.458;2023-11-18T00:51:05;8.65;;;3.10;;
21675;SDS011;10999;51.332;9.458;2023-11-18T00:53:32;10.80;;;3.50;;
21675;SDS011;10999;51.332;9.458;2023-11-18T00:55:59;10.63;;;3.22;;
21675;SDS011;10999;51.332;9.458;2023-11-18T00:58:27;8.48;;;3.55;;
21675;SDS011;10999;51.332;9.458;2023-11-18T01:00:55;7.80;;;3.40;;
21675;SDS011;10999;51.332;9.458;2023-11-18T01:03:22;8.68;;;3.47;;
21675;SDS011;10999;51.332;9.458;2023-11-18T01:05:48;8.82;;;3.30;;
21675;SDS011;10999;51.332;9.458;2023-11-18T01:08:15;8.70;;;3.42;;
21675;SDS011;10999;51.332;9.458;2023-11-18T01:10:43;9.60;;;3.53;;
21675;SDS011;10999;51.332;9.458;2023-11-18T01:13:10;9.27;;;3.90;;
21675;SDS011;10999;51.332;9.458;2023-11-18T01:15:37;8.55;;;3.65;;
21675;SDS011;10999;51.332;9.458;2023-11-18T01:18:03;11.00;;;4.53;;
21675;SDS011;10999;51.332;9.458;2023-11-18T01:20:32;9.85;;;3.70;;
21675;SDS011;10999;51.332;9.458;2023-11-18T01:22:59;7.93;;;4.53;;
21675;SDS011;10999;51.332;9.458;2023-11-18T01:25:26;11.10;;;4.30;;
21675;SDS011;10999;51.332;9.458;2023-11-18T01:27:53;9.90;;;4.03;;
21675;SDS011;10999;51.332;9.458;2023-11-18T01:30:20;10.88;;;4.40;;
21675;SDS011;10999;51.332;9.458;2023-11-18T01:32:46;11.55;;;4.57;;
21675;SDS011;10999;51.332;9.458;2023-11-18T01:35:13;13.10;;;4.22;;
21675;SDS011;10999;51.332;9.458;2023-11-18T01:37:40;9.57;;;4.15;;
21675;SDS011;10999;51.332;9.458;2023-11-18T01:40:07;9.05;;;4.20;;
21675;SDS011;10999;51.332;9.458;2023-11-18T01:42:34;11.32;;;4.38;;
21675;SDS011;10999;51.332;9.458;2023-11-18T01:45:01;10.75;;;4.05;;
21675;SDS011;10999;51.332;9.458;2023-11-18T01:47:33;9.50;;;4.07;;
21675;SDS011;10999;51.332;9.458;2023-11-18T01:50:00;11.55;;;3.88;;
21675;SDS011;10999;51.332;9.458;2023-11-18T01:52:28;10.68;;;4.05;;
21675;SDS011;10999;51.332;9.458;2023-11-18T01:54:56;9.82;;;3.88;;
21675;SDS011;10999;51.332;9.458;2023-11-18T01:57:24;12.48;;;4.30;;
21675;SDS011;10999;51.332;9.458;2023-11-18T01:59:53;10.15;;;4.40;;
21675;SDS011;10999;51.332;9.458;2023-11-18T02:02:20;9.15;;;4.00;;
21675;SDS011;10999;51.332;9.458;2023-11-18T02:04:47;10.65;;;4.28;;
21675;SDS011;10999;51.332;9.458;2023-11-18T02:07:14;7.22;;;3.45;;
21675;SDS011;10999;51.332;9.458;2023-11-18T02:09:41;10.27;;;3.92;;
21675;SDS011;10999;51.332;9.458;2023-11-18T02:14:51;10.35;;;4.53;;
21675;SDS011;10999;51.332;9.458;2023-11-18T02:17:21;10.45;;;4.05;;
21675;SDS011;10999;51.332;9.458;2023-11-18T02:19:51;10.27;;;4.15;;
21675;SDS011;10999;51.332;9.458;2023-11-18T02:22:19;8.05;;;3.15;;
21675;SDS011;10999;51.332;9.458;2023-11-18T02:24:48;12.80;;;4.13;;
21675;SDS011;10999;51.332;9.458;2023-11-18T02:27:15;9.07;;;3.70;;
21675;SDS011;10999;51.332;9.458;2023-11-18T02:29:44;8.77;;;3.85;;
21675;SDS011;10999;51.332;9.458;2023-11-18T02:34:52;9.57;;;4.55;;
21675;SDS011;10999;51.332;9.458;2023-11-18T02:37:32;9.35;;;4.50;;
21675;SDS011;10999;51.332;9.458;2023-11-18T02:40:05;11.25;;;4.35;;
21675;SDS011;10999;51.332;9.458;2023-11-18T02:42:40;12.00;;;4.55;;
21675;SDS011;10999;51.332;9.458;2023-11-18T02:45:10;9.73;;;4.07;;
21675;SDS011;10999;51.332;9.458;2023-11-18T02:47:43;12.40;;;4.80;;
21675;SDS011;10999;51.332;9.458;2023-11-18T02:50:11;11.50;;;4.65;;
21675;SDS011;10999;51.332;9.458;2023-11-18T02:52:39;10.40;;;4.50;;
21675;SDS011;10999;51.332;9.458;2023-11-18T02:55:07;12.45;;;4.72;;
21675;SDS011;10999;51.332;9.458;2023-11-18T02:57:35;9.50;;;3.70;;
21675;SDS011;10999;51.332;9.458;2023-11-18T03:00:03;10.30;;;4.57;;
21675;SDS011;10999;51.332;9.458;2023-11-18T03:02:31;13.45;;;4.50;;
21675;SDS011;10999;51.332;9.458;2023-11-18T03:04:58;13.95;;;5.05;;
21675;SDS011;10999;51.332;9.458;2023-11-18T03:07:25;12.85;;;5.40;;
21675;SDS011;10999;51.332;9.458;2023-11-18T03:09:55;11.05;;;4.72;;
21675;SDS011;10999;51.332;9.458;2023-11-18T03:12:23;10.75;;;4.88;;
21675;SDS011;10999;51.332;9.458;2023-11-18T03:14:54;9.85;;;4.72;;
21675;SDS011;10999;51.332;9.458;2023-11-18T03:17:21;11.57;;;5.45;;
21675;SDS011;10999;51.332;9.458;2023-11-18T03:19:48;12.27;;;4.90;;
21675;SDS011;10999;51.332;9.458;2023-11-18T03:22:16;13.57;;;4.88;;
21675;SDS011;10999;51.332;9.458;2023-11-18T03:24:43;12.80;;;5.18;;
21675;SDS011;10999;51.332;9.458;2023-11-18T03:27:10;11.25;;;4.13;;
21675;SDS011;10999;51.332;9.458;2023-11-18T03:29:37;10.02;;;4.50;;
21675;SDS011;10999;51.332;9.458;2023-11-18T03:32:04;9.75;;;3.97;;
21675;SDS011;10999;51.332;9.458;2023-11-18T03:34:31;12.18;;;4.88;;
21675;SDS011;10999;51.332;9.458;2023-11-18T03:36:59;12.15;;;4.72;;
21675;SDS011;10999;51.332;9.458;2023-11-18T03:39:26;11.77;;;4.13;;
21675;SDS011;10999;51.332;9.458;2023-11-18T03:41:53;12.77;;;4.95;;
21675;SDS011;10999;51.332;9.458;2023-11-18T03:44:23;9.52;;;4.25;;
21675;SDS011;10999;51.332;9.458;2023-11-18T03:46:52;12.43;;;4.50;;
21675;SDS011;10999;51.332;9.458;2023-11-18T03:49:19;9.50;;;4.60;;
21675;SDS011;10999;51.332;9.458;2023-11-18T03:51:47;10.02;;;4.90;;
21675;SDS011;10999;51.332;9.458;2023-11-18T03:54:14;9.68;;;4.32;;
21675;SDS011;10999;51.332;9.458;2023-11-18T03:56:41;11.40;;;3.72;;
21675;SDS011;10999;51.332;9.458;2023-11-18T03:59:08;9.73;;;4.53;;
21675;SDS011;10999;51.332;9.458;2023-11-18T04:01:35;9.35;;;4.22;;
21675;SDS011;10999;51.332;9.458;2023-11-18T04:04:03;12.45;;;4.68;;
21675;SDS011;10999;51.332;9.458;2023-11-18T04:06:30;10.57;;;4.20;;
21675;SDS011;10999;51.332;9.458;2023-11-18T04:08:57;12.25;;;4.72;;
21675;SDS011;10999;51.332;9.458;2023-11-18T04:11:28;9.27;;;3.70;;
21675;SDS011;10999;51.332;9.458;2023-11-18T04:13:55;11.55;;;4.75;;
21675;SDS011;10999;51.332;9.458;2023-11-18T04:16:22;9.65;;;4.00;;
21675;SDS011;10999;51.332;9.458;2023-11-18T04:18:49;9.35;;;4.20;;
21675;SDS011;10999;51.332;9.458;2023-11-18T04:21:17;11.30;;;4.45;;
21675;SDS011;10999;51.332;9.458;2023-11-18T04:23:44;9.90;;;4.18;;
21675;SDS011;10999;51.332;9.458;2023-11-18T04:26:13;11.88;;;4.55;;
21675;SDS011;10999;51.332;9.458;2023-11-18T04:28:40;9.43;;;4.30;;
21675;SDS011;10999;51.332;9.458;2023-11-18T04:31:07;10.43;;;4.53;;
21675;SDS011;10999;51.332;9.458;2023-11-18T04:33:35;11.32;;;4.20;;
21675;SDS011;10999;51.332;9.458;2023-11-18T04:36:02;10.50;;;3.88;;
21675;SDS011;10999;51.332;9.458;2023-11-18T04:38:32;11.05;;;3.78;;
21675;SDS011;10999;51.332;9.458;2023-11-18T04:40:59;9.75;;;3.97;;
21675;SDS011;10999;51.332;9.458;2023-11-18T04:43:27;9.98;;;4.47;;
21675;SDS011;10999;51.332;9.458;2023-11-18T04:46:10;10.63;;;4.57;;
21675;SDS011;10999;51.332;9.458;2023-11-18T04:48:38;10.32;;;4.05;;
21675;SDS011;10999;51.332;9.458;2023-11-18T04:51:08;11.60;;;3.72;;
21675;SDS011;10999;51.332;9.458;2023-11-18T04:53:35;8.25;;;3.75;;
21675;SDS011;10999;51.332;9.458;2023-11-18T04:56:03;10.52;;;4.28;;
21675;SDS011;10999;51.332;9.458;2023-11-18T04:58:31;9.07;;;3.97;;
21675;SDS011;10999;51.332;9.458;2023-11-18T05:00:58;9.25;;;3.97;;
21675;SDS011;10999;51.332;9.458;2023-11-18T05:03:25;10.02;;;3.85;;
21675;SDS011;10999;51.332;9.458;2023-11-18T05:05:52;9.20;;;3.67;;
21675;SDS011;10999;51.332;9.458;2023-11-18T05:08:23;10.25;;;3.60;;
21675;SDS011;10999;51.332;9.458;2023-11-18T05:10:52;10.20;;;3.80;;
21675;SDS011;10999;51.332;9.458;2023-11-18T05:13:18;9.13;;;3.67;;
21675;SDS011;10999;51.332;9.458;2023-11-18T05:15:46;11.30;;;4.30;;
21675;SDS011;10999;51.332;9.458;2023-11-18T05:18:13;11.02;;;4.32;;
21675;SDS011;10999;51.332;9.458;2023-11-18T05:20:42;8.68;;;3.80;;
21675;SDS011;10999;51.332;9.458;2023-11-18T05:23:12;9.77;;;4.10;;
21675;SDS011;10999;51.332;9.458;2023-11-18T05:25:39;9.90;;;3.90;;
21675;SDS011;10999;51.332;9.458;2023-11-18T05:28:07;12.05;;;4.20;;
21675;SDS011;10999;51.332;9.458;2023-11-18T05:30:37;9.95;;;4.15;;
21675;SDS011;10999;51.332;9.458;2023-11-18T05:33:07;12.40;;;4.35;;
21675;SDS011;10999;51.332;9.458;2023-11-18T05:35:35;10.18;;;4.32;;
21675;SDS011;10999;51.332;9.458;2023-11-18T05:38:02;9.90;;;4.45;;
21675;SDS011;10999;51.332;9.458;2023-11-18T05:40:32;11.70;;;4.70;;
21675;SDS011;10999;51.332;9.458;2023-11-18T05:43:02;13.15;;;5.07;;
21675;SDS011;10999;51.332;9.458;2023-11-18T05:45:32;13.15;;;5.15;;
21675;SDS011;10999;51.332;9.458;2023-11-18T05:48:19;10.95;;;4.78;;
21675;SDS011;10999;51.332;9.458;2023-11-18T05:50:45;13.05;;;4.95;;
21675;SDS011;10999;51.332;9.458;2023-11-18T05:53:14;13.60;;;5.30;;
21675;SDS011;10999;51.332;9.458;2023-11-18T05:55:41;14.65;;;5.90;;
21675;SDS011;10999;51.332;9.458;2023-11-18T05:58:08;15.18;;;6.00;;
21675;SDS011;10999;51.332;9.458;2023-11-18T06:00:36;15.40;;;5.43;;
21675;SDS011;10999;51.332;9.458;2023-11-18T06:03:07;11.88;;;5.45;;
21675;SDS011;10999;51.332;9.458;2023-11-18T06:05:34;11.48;;;4.78;;
21675;SDS011;10999;51.332;9.458;2023-11-18T06:08:01;14.65;;;5.97;;
21675;SDS011;10999;51.332;9.458;2023-11-18T06:10:28;13.40;;;5.47;;
21675;SDS011;10999;51.332;9.458;2023-11-18T06:12:57;16.77;;;5.80;;
21675;SDS011;10999;51.332;9.458;2023-11-18T06:15:24;14.07;;;4.43;;
21675;SDS011;10999;51.332;9.458;2023-11-18T06:17:51;11.57;;;4.60;;
21675;SDS011;10999;51.332;9.458;2023-11-18T06:20:18;16.75;;;5.28;;
21675;SDS011;10999;51.332;9.458;2023-11-18T06:22:46;15.90;;;6.00;;
21675;SDS011;10999;51.332;9.458;2023-11-18T06:25:13;15.57;;;6.07;;
21675;SDS011;10999;51.332;9.458;2023-11-18T06:27:40;17.85;;;6.75;;
21675;SDS011;10999;51.332;9.458;2023-11-18T06:30:06;16.80;;;5.80;;
21675;SDS011;10999;51.332;9.458;2023-11-18T06:32:34;15.20;;;6.18;;
21675;SDS011;10999;51.332;9.458;2023-11-18T06:35:00;11.20;;;4.88;;
21675;SDS011;10999;51.332;9.458;2023-11-18T06:37:33;15.40;;;5.78;;
21675;SDS011;10999;51.332;9.458;2023-11-18T06:39:59;13.02;;;4.65;;
21675;SDS011;10999;51.332;9.458;2023-11-18T06:42:26;14.38;;;5.82;;
21675;SDS011;10999;51.332;9.458;2023-11-18T06:44:53;19.83;;;6.20;;
21675;SDS011;10999;51.332;9.458;2023-11-18T06:47:21;19.83;;;6.22;;
21675;SDS011;10999;51.332;9.458;2023-11-18T06:49:48;15.95;;;5.72;;
21675;SDS011;10999;51.332;9.458;2023-11-18T06:52:14;18.38;;;6.13;;
21675;SDS011;10999;51.332;9.458;2023-11-18T06:54:41;18.42;;;6.68;;
21675;SDS011;10999;51.332;9.458;2023-11-18T06:57:08;20.95;;;6.18;;
21675;SDS011;10999;51.332;9.458;2023-11-18T06:59:35;22.48;;;6.18;;
21675;SDS011;10999;51.332;9.458;2023-11-18T07:02:02;24.60;;;7.57;;
21675;SDS011;10999;51.332;9.458;2023-11-18T07:04:33;17.48;;;6.97;;
21675;SDS011;10999;51.332;9.458;2023-11-18T07:06:59;20.48;;;7.97;;
21675;SDS011;10999;51.332;9.458;2023-11-18T07:09:27;19.67;;;6.82;;
21675;SDS011;10999;51.332;9.458;2023-11-18T07:11:54;17.40;;;6.20;;
21675;SDS011;10999;51.332;9.458;2023-11-18T07:14:22;18.50;;;7.00;;
21675;SDS011;10999;51.332;9.458;2023-11-18T07:16:49;20.17;;;7.80;;
21675;SDS011;10999;51.332;9.458;2023-11-18T07:19:16;18.30;;;7.00;;
21675;SDS011;10999;51.332;9.458;2023-11-18T07:21:49;17.73;;;7.60;;
21675;SDS011;10999;51.332;9.458;2023-11-18T07:24:17;19.10;;;6.90;;
21675;SDS011;10999;51.332;9.458;2023-11-18T07:26:44;19.13;;;7.15;;
21675;SDS011;10999;51.332;9.458;2023-11-18T07:29:12;18.05;;;6.80;;
21675;SDS011;10999;51.332;9.458;2023-11-18T07:31:38;15.20;;;5.90;;
21675;SDS011;10999;51.332;9.458;2023-11-18T07:34:05;18.77;;;7.45;;
21675;SDS011;10999;51.332;9.458;2023-11-18T07:36:32;18.77;;;6.93;;
21675;SDS011;10999;51.332;9.458;2023-11-18T07:38:59;15.88;;;5.82;;
21675;SDS011;10999;51.332;9.458;2023-11-18T07:41:27;18.33;;;6.05;;
21675;SDS011;10999;51.332;9.458;2023-11-18T07:43:58;18.65;;;6.63;;
21675;SDS011;10999;51.332;9.458;2023-11-18T07:46:25;15.80;;;5.88;;
21675;SDS011;10999;51.332;9.458;2023-11-18T07:48:52;15.10;;;6.05;;
21675;SDS011;10999;51.332;9.458;2023-11-18T07:51:19;17.98;;;6.82;;
21675;SDS011;10999;51.332;9.458;2023-11-18T07:53:50;16.90;;;6.38;;
21675;SDS011;10999;51.332;9.458;2023-11-18T07:56:18;18.00;;;6.88;;
21675;SDS011;10999;51.332;9.458;2023-11-18T07:58:48;20.52;;;5.97;;
21675;SDS011;10999;51.332;9.458;2023-11-18T08:01:17;21.77;;;6.93;;
21675;SDS011;10999;51.332;9.458;2023-11-18T08:03:44;20.20;;;7.40;;
21675;SDS011;10999;51.332;9.458;2023-11-18T08:06:11;19.67;;;5.97;;
21675;SDS011;10999;51.332;9.458;2023-11-18T08:08:38;17.45;;;5.68;;
21675;SDS011;10999;51.332;9.458;2023-11-18T08:11:06;20.38;;;6.78;;
21675;SDS011;10999;51.332;9.458;2023-11-18T08:13:33;21.55;;;7.22;;
21675;SDS011;10999;51.332;9.458;2023-11-18T08:16:00;21.10;;;6.90;;
21675;SDS011;10999;51.332;9.458;2023-11-18T08:18:30;22.60;;;6.63;;
21675;SDS011;10999;51.332;9.458;2023-11-18T08:20:57;19.17;;;7.00;;
21675;SDS011;10999;51.332;9.458;2023-11-18T08:23:26;23.50;;;6.57;;
21675;SDS011;10999;51.332;9.458;2023-11-18T08:25:54;24.35;;;8.05;;
21675;SDS011;10999;51.332;9.458;2023-11-18T08:28:21;23.42;;;7.47;;
21675;SDS011;10999;51.332;9.458;2023-11-18T08:30:48;16.90;;;6.53;;
21675;SDS011;10999;51.332;9.458;2023-11-18T08:33:17;25.48;;;6.78;;
21675;SDS011;10999;51.332;9.458;2023-11-18T08:35:45;26.10;;;7.53;;
21675;SDS011;10999;51.332;9.458;2023-11-18T08:38:12;20.88;;;7.10;;
21675;SDS011;10999;51.332;9.458;2023-11-18T08:40:40;18.83;;;6.47;;
21675;SDS011;10999;51.332;9.458;2023-11-18T08:43:09;20.83;;;7.53;;
21675;SDS011;10999;51.332;9.458;2023-11-18T08:45:37;19.17;;;7.05;;
21675;SDS011;10999;51.332;9.458;2023-11-18T08:48:04;29.13;;;8.48;;
21675;SDS011;10999;51.332;9.458;2023-11-18T08:50:35;19.48;;;7.18;;
21675;SDS011;10999;51.332;9.458;2023-11-18T08:53:03;24.92;;;8.43;;
21675;SDS011;10999;51.332;9.458;2023-11-18T08:55:32;23.60;;;7.43;;
21675;SDS011;10999;51.332;9.458;2023-11-18T08:58:08;23.25;;;7.93;;
21675;SDS011;10999;51.332;9.458;2023-11-18T09:00:47;21.42;;;7.50;;
21675;SDS011;10999;51.332;9.458;2023-11-18T09:03:25;24.98;;;8.25;;
21675;SDS011;10999;51.332;9.458;2023-11-18T09:06:01;21.02;;;7.18;;
21675;SDS011;10999;51.332;9.458;2023-11-18T09:08:33;18.45;;;7.40;;
21675;SDS011;10999;51.332;9.458;2023-11-18T09:11:02;18.02;;;7.35;;
21675;SDS011;10999;51.332;9.458;2023-11-18T09:13:31;18.55;;;6.88;;
21675;SDS011;10999;51.332;9.458;2023-11-18T09:16:02;25.50;;;7.53;;
21675;SDS011;10999;51.332;9.458;2023-11-18T09:18:35;22.17;;;9.32;;
21675;SDS011;10999;51.332;9.458;2023-11-18T09:21:09;24.33;;;8.45;;
21675;SDS011;10999;51.332;9.458;2023-11-18T09:23:42;22.50;;;7.63;;
21675;SDS011;10999;51.332;9.458;2023-11-18T09:26:11;25.70;;;8.07;;
21675;SDS011;10999;51.332;9.458;2023-11-18T09:28:38;20.55;;;7.57;;
21675;SDS011;10999;51.332;9.458;2023-11-18T09:31:05;21.52;;;8.55;;
21675;SDS011;10999;51.332;9.458;2023-11-18T09:33:33;40.53;;;14.38;;
21675;SDS011;10999;51.332;9.458;2023-11-18T09:41:07;29.75;;;10.55;;
21675;SDS011;10999;51.332;9.458;2023-11-18T09:43:38;23.30;;;7.05;;
21675;SDS011;10999;51.332;9.458;2023-11-18T09:46:10;27.55;;;9.55;;
21675;SDS011;10999;51.332;9.458;2023-11-18T09:51:20;25.77;;;12.15;;
21675;SDS011;10999;51.332;9.458;2023-11-18T09:53:52;24.98;;;8.48;;
21675;SDS011;10999;51.332;9.458;2023-11-18T10:01:57;25.17;;;9.35;;
21675;SDS011;10999;51.332;9.458;2023-11-18T10:04:24;31.55;;;8.73;;
21675;SDS011;10999;51.332;9.458;2023-11-18T10:06:54;22.85;;;8.10;;
21675;SDS011;10999;51.332;9.458;2023-11-18T10:09:23;27.42;;;9.23;;
21675;SDS011;10999;51.332;9.458;2023-11-18T10:12:03;27.80;;;9.50;;
21675;SDS011;10999;51.332;9.458;2023-11-18T10:17:04;33.38;;;10.18;;
21675;SDS011;10999;51.332;9.458;2023-11-18T10:22:27;29.15;;;8.98;;
21675;SDS011;10999;51.332;9.458;2023-11-18T10:24:56;28.58;;;9.57;;
21675;SDS011;10999;51.332;9.458;2023-11-18T10:27:27;30.45;;;9.73;;
21675;SDS011;10999;51.332;9.458;2023-11-18T10:29:58;29.00;;;9.43;;
21675;SDS011;10999;51.332;9.458;2023-11-18T10:32:29;32.22;;;10.20;;
21675;SDS011;10999;51.332;9.458;2023-11-18T10:34:56;26.05;;;8.65;;
21675;SDS011;10999;51.332;9.458;2023-11-18T10:37:27;32.00;;;11.82;;
21675;SDS011;10999;51.332;9.458;2023-11-18T10:39:58;26.10;;;8.43;;
21675;SDS011;10999;51.332;9.458;2023-11-18T10:42:31;29.13;;;9.38;;
21675;SDS011;10999;51.332;9.458;2023-11-18T10:44:59;29.85;;;10.00;;
21675;SDS011;10999;51.332;9.458;2023-11-18T10:47:33;26.25;;;8.63;;
21675;SDS011;10999;51.332;9.458;2023-11-18T10:50:05;25.13;;;8.02;;
21675;SDS011;10999;51.332;9.458;2023-11-18T10:52:36;22.73;;;7.95;;
21675;SDS011;10999;51.332;9.458;2023-11-18T10:55:03;26.20;;;8.52;;
21675;SDS011;10999;51.332;9.458;2023-11-18T10:57:33;21.58;;;7.65;;
21675;SDS011;10999;51.332;9.458;2023-11-18T11:00:02;22.92;;;8.27;;
21675;SDS011;10999;51.332;9.458;2023-11-18T11:02:39;15.98;;;6.05;;
21675;SDS011;10999;51.332;9.458;2023-11-18T11:05:08;27.05;;;7.95;;
21675;SDS011;10999;51.332;9.458;2023-11-18T11:07:47;20.80;;;7.30;;
21675;SDS011;10999;51.332;9.458;2023-11-18T11:10:15;25.92;;;8.07;;
21675;SDS011;10999;51.332;9.458;2023-11-18T11:12:49;23.02;;;7.78;;
21675;SDS011;10999;51.332;9.458;2023-11-18T11:15:20;24.35;;;7.88;;
21675;SDS011;10999;51.332;9.458;2023-11-18T11:17:52;20.70;;;7.72;;
21675;SDS011;10999;51.332;9.458;2023-11-18T11:20:21;20.13;;;7.75;;
21675;SDS011;10999;51.332;9.458;2023-11-18T11:22:58;17.05;;;6.47;;
21675;SDS011;10999;51.332;9.458;2023-11-18T11:25:47;20.60;;;7.10;;
21675;SDS011;10999;51.332;9.458;2023-11-18T11:28:22;19.95;;;8.32;;
21675;SDS011;10999;51.332;9.458;2023-11-18T11:30:58;21.27;;;7.85;;
21675;SDS011;10999;51.332;9.458;2023-11-18T11:33:46;15.63;;;6.47;;
21675;SDS011;10999;51.332;9.458;2023-11-18T11:36:21;22.48;;;8.32;;
21675;SDS011;10999;51.332;9.458;2023-11-18T11:38:57;25.25;;;8.30;;
21675;SDS011;10999;51.332;9.458;2023-11-18T11:41:25;22.25;;;9.43;;
21675;SDS011;10999;51.332;9.458;2023-11-18T11:43:53;20.73;;;9.13;;
21675;SDS011;10999;51.332;9.458;2023-11-18T11:46:25;21.45;;;8.18;;
21675;SDS011;10999;51.332;9.458;2023-11-18T11:49:00;19.88;;;8.60;;
21675;SDS011;10999;51.332;9.458;2023-11-18T11:51:40;20.90;;;8.75;;
21675;SDS011;10999;51.332;9.458;2023-11-18T11:57:31;19.88;;;7.93;;
21675;SDS011;10999;51.332;9.458;2023-11-18T12:00:04;20.25;;;10.00;;
21675;SDS011;10999;51.332;9.458;2023-11-18T12:02:48;21.67;;;8.70;;
21675;SDS011;10999;51.332;9.458;2023-11-18T12:05:23;19.83;;;8.13;;
21675;SDS011;10999;51.332;9.458;2023-11-18T12:07:53;23.20;;;8.88;;
21675;SDS011;10999;51.332;9.458;2023-11-18T12:10:30;20.52;;;8.40;;
21675;SDS011;10999;51.332;9.458;2023-11-18T12:13:08;21.00;;;7.82;;
21675;SDS011;10999;51.332;9.458;2023-11-18T12:15:50;21.60;;;8.68;;
21675;SDS011;10999;51.332;9.458;2023-11-18T12:18:24;19.58;;;8.02;;
21675;SDS011;10999;51.332;9.458;2023-11-18T12:20:51;19.40;;;8.18;;
21675;SDS011;10999;51.332;9.458;2023-11-18T12:23:24;18.58;;;7.47;;
21675;SDS011;10999;51.332;9.458;2023-11-18T12:25:52;21.90;;;8.82;;
21675;SDS011;10999;51.332;9.458;2023-11-18T12:28:21;21.25;;;8.50;;
21675;SDS011;10999;51.332;9.458;2023-11-18T12:30:57;18.48;;;7.75;;
21675;SDS011;10999;51.332;9.458;2023-11-18T12:33:24;20.02;;;7.97;;
21675;SDS011;10999;51.332;9.458;2023-11-18T12:36:34;18.98;;;8.52;;
21675;SDS011;10999;51.332;9.458;2023-11-18T12:42:07;19.77;;;8.63;;
21675;SDS011;10999;51.332;9.458;2023-11-18T12:44:41;17.80;;;7.53;;
21675;SDS011;10999;51.332;9.458;2023-11-18T12:47:27;22.33;;;8.65;;
21675;SDS011;10999;51.332;9.458;2023-11-18T12:49:57;20.40;;;8.40;;
21675;SDS011;10999;51.332;9.458;2023-11-18T12:52:26;20.23;;;8.43;;
21675;SDS011;10999;51.332;9.458;2023-11-18T12:54:54;19.98;;;7.90;;
21675;SDS011;10999;51.332;9.458;2023-11-18T12:57:28;21.10;;;8.52;;
21675;SDS011;10999;51.332;9.458;2023-11-18T12:59:58;19.05;;;7.80;;
21675;SDS011;10999;51.332;9.458;2023-11-18T13:02:26;17.55;;;7.53;;
21675;SDS011;10999;51.332;9.458;2023-11-18T13:04:55;15.48;;;7.00;;
21675;SDS011;10999;51.332;9.458;2023-11-18T13:07:21;15.65;;;7.07;;
21675;SDS011;10999;51.332;9.458;2023-11-18T13:09:50;14.60;;;6.78;;
21675;SDS011;10999;51.332;9.458;2023-11-18T13:12:17;16.67;;;7.45;;
21675;SDS011;10999;51.332;9.458;2023-11-18T13:14:46;16.10;;;6.47;;
21675;SDS011;10999;51.332;9.458;2023-11-18T13:17:16;14.65;;;6.18;;
21675;SDS011;10999;51.332;9.458;2023-11-18T13:19:44;15.98;;;7.60;;
21675;SDS011;10999;51.332;9.458;2023-11-18T13:22:13;13.93;;;6.72;;
21675;SDS011;10999;51.332;9.458;2023-11-18T13:24:41;13.55;;;6.10;;
21675;SDS011;10999;51.332;9.458;2023-11-18T13:27:18;14.60;;;6.47;;
21675;SDS011;10999;51.332;9.458;2023-11-18T13:29:48;15.43;;;6.85;;
21675;SDS011;10999;51.332;9.458;2023-11-18T13:32:17;14.63;;;6.55;;
21675;SDS011;10999;51.332;9.458;2023-11-18T13:34:49;16.83;;;7.15;;
21675;SDS011;10999;51.332;9.458;2023-11-18T13:37:18;13.95;;;5.82;;
21675;SDS011;10999;51.332;9.458;2023-11-18T13:39:55;15.27;;;6.90;;
21675;SDS011;10999;51.332;9.458;2023-11-18T13:42:26;16.10;;;6.63;;
21675;SDS011;10999;51.332;9.458;2023-11-18T13:45:02;14.80;;;6.32;;
21675;SDS011;10999;51.332;9.458;2023-11-18T13:47:34;13.18;;;7.05;;
21675;SDS011;10999;51.332;9.458;2023-11-18T13:50:09;15.23;;;6.60;;
21675;SDS011;10999;51.332;9.458;2023-11-18T13:52:36;17.70;;;7.10;;
21675;SDS011;10999;51.332;9.458;2023-11-18T13:55:05;13.93;;;6.18;;
21675;SDS011;10999;51.332;9.458;2023-11-18T13:57:33;15.50;;;7.20;;
21675;SDS011;10999;51.332;9.458;2023-11-18T14:00:01;17.98;;;7.60;;
21675;SDS011;10999;51.332;9.458;2023-11-18T14:02:28;17.38;;;7.45;;
21675;SDS011;10999;51.332;9.458;2023-11-18T14:04:55;18.10;;;7.90;;
21675;SDS011;10999;51.332;9.458;2023-11-18T14:07:22;15.45;;;6.88;;
21675;SDS011;10999;51.332;9.458;2023-11-18T14:09:50;18.08;;;8.20;;
21675;SDS011;10999;51.332;9.458;2023-11-18T14:12:20;17.15;;;7.50;;
21675;SDS011;10999;51.332;9.458;2023-11-18T14:14:48;15.10;;;7.35;;
21675;SDS011;10999;51.332;9.458;2023-11-18T14:17:16;15.02;;;6.47;;
21675;SDS011;10999;51.332;9.458;2023-11-18T14:19:43;16.58;;;6.40;;
21675;SDS011;10999;51.332;9.458;2023-11-18T14:22:10;16.63;;;6.78;;
21675;SDS011;10999;51.332;9.458;2023-11-18T14:24:37;17.90;;;7.07;;
21675;SDS011;10999;51.332;9.458;2023-11-18T14:27:04;19.13;;;8.38;;
21675;SDS011;10999;51.332;9.458;2023-11-18T14:29:31;16.98;;;7.25;;
21675;SDS011;10999;51.332;9.458;2023-11-18T14:31:57;17.83;;;7.70;;
21675;SDS011;10999;51.332;9.458;2023-11-18T14:34:24;16.42;;;7.25;;
21675;SDS011;10999;51.332;9.458;2023-11-18T14:36:51;15.48;;;7.40;;
21675;SDS011;10999;51.332;9.458;2023-11-18T14:39:18;19.90;;;7.78;;
21675;SDS011;10999;51.332;9.458;2023-11-18T14:41:48;14.85;;;7.28;;
21675;SDS011;10999;51.332;9.458;2023-11-18T14:44:16;15.27;;;7.20;;
21675;SDS011;10999;51.332;9.458;2023-11-18T14:46:44;17.88;;;7.10;;
21675;SDS011;10999;51.332;9.458;2023-11-18T14:49:12;16.98;;;7.72;;
21675;SDS011;10999;51.332;9.458;2023-11-18T14:51:39;15.88;;;7.13;;
21675;SDS011;10999;51.332;9.458;2023-11-18T14:54:06;16.55;;;6.93;;
21675;SDS011;10999;51.332;9.458;2023-11-18T14:56:33;20.65;;;8.52;;
21675;SDS011;10999;51.332;9.458;2023-11-18T14:59:01;16.63;;;7.50;;
21675;SDS011;10999;51.332;9.458;2023-11-18T15:01:31;18.33;;;8.00;;
21675;SDS011;10999;51.332;9.458;2023-11-18T15:03:57;19.27;;;7.60;;
21675;SDS011;10999;51.332;9.458;2023-11-18T15:06:27;17.45;;;7.95;;
21675;SDS011;10999;51.332;9.458;2023-11-18T15:08:55;19.70;;;8.73;;
21675;SDS011;10999;51.332;9.458;2023-11-18T15:11:23;15.75;;;7.53;;
21675;SDS011;10999;51.332;9.458;2023-11-18T15:13:51;17.25;;;7.53;;
21675;SDS011;10999;51.332;9.458;2023-11-18T15:16:22;18.77;;;7.68;;
21675;SDS011;10999;51.332;9.458;2023-11-18T15:18:49;18.70;;;7.93;;